sensor_id;sensor_type;location;lat;lon;timestamp;P1;durP1;ratioP1;P2;durP2;ratioP2
49890;SDS011;35780;55.568;37.492;2022-10-31T00:00:51;2.50;;;1.00;;
49890;SDS011;35780;55.568;37.492;2022-10-31T00:03:16;6.53;;;1.00;;
49890;SDS011;35780;55.568;37.492;2022-10-31T00:05:43;2.28;;;0.98;;
49890;SDS011;35780;55.568;37.492;2022-10-31T00:08:09;1.52;;;0.73;;
49890;SDS011;35780;55.568;37.492;2022-10-31T00:10:37;1.38;;;0.68;;
49890;SDS011;35780;55.568;37.492;2022-10-31T00:13:05;0.95;;;0.60;;
49890;SDS011;35780;55.568;37.492;2022-10-31T00:15:32;2.15;;;0.63;;
49890;SDS011;35780;55.568;37.492;2022-10-31T00:18:02;1.85;;;1.05;;
49890;SDS011;35780;55.568;37.492;2022-10-31T00:20:28;1.52;;;0.90;;
49890;SDS011;35780;55.568;37.492;2022-10-31T00:22:57;8.80;;;0.85;;
49890;SDS011;35780;55.568;37.492;2022-10-31T00:25:23;1.58;;;0.68;;
49890;SDS011;35780;55.568;37.492;2022-10-31T00:27:48;1.73;;;0.73;;
49890;SDS011;35780;55.568;37.492;2022-10-31T00:30:14;1.73;;;0.70;;
49890;SDS011;35780;55.568;37.492;2022-10-31T00:32:39;1.70;;;0.80;;
49890;SDS011;35780;55.568;37.492;2022-10-31T00:35:05;0.82;;;0.50;;
49890;SDS011;35780;55.568;37.492;2022-10-31T00:37:31;5.45;;;1.30;;
49890;SDS011;35780;55.568;37.492;2022-10-31T00:39:56;2.08;;;0.90;;
49890;SDS011;35780;55.568;37.492;2022-10-31T00:42:22;2.25;;;0.70;;
49890;SDS011;35780;55.568;37.492;2022-10-31T00:44:47;2.85;;;0.93;;
49890;SDS011;35780;55.568;37.492;2022-10-31T00:47:13;1.75;;;0.65;;
49890;SDS011;35780;55.568;37.492;2022-10-31T00:49:38;1.20;;;0.60;;
49890;SDS011;35780;55.568;37.492;2022-10-31T00:52:04;4.30;;;0.70;;
49890;SDS011;35780;55.568;37.492;2022-10-31T00:54:29;0.80;;;0.80;;
49890;SDS011;35780;55.568;37.492;2022-10-31T00:56:56;3.67;;;0.80;;
49890;SDS011;35780;55.568;37.492;2022-10-31T00:59:22;1.23;;;0.60;;
49890;SDS011;35780;55.568;37.492;2022-10-31T01:01:47;1.80;;;0.80;;
49890;SDS011;35780;55.568;37.492;2022-10-31T01:04:13;3.53;;;0.85;;
49890;SDS011;35780;55.568;37.492;2022-10-31T01:06:38;1.15;;;0.60;;
49890;SDS011;35780;55.568;37.492;2022-10-31T01:09:04;0.65;;;0.60;;
49890;SDS011;35780;55.568;37.492;2022-10-31T01:11:29;1.48;;;0.80;;
49890;SDS011;35780;55.568;37.492;2022-10-31T01:13:55;4.75;;;0.70;;
49890;SDS011;35780;55.568;37.492;2022-10-31T01:16:21;1.48;;;0.80;;
49890;SDS011;35780;55.568;37.492;2022-10-31T01:18:48;2.25;;;0.80;;
49890;SDS011;35780;55.568;37.492;2022-10-31T01:21:15;3.15;;;1.00;;
49890;SDS011;35780;55.568;37.492;2022-10-31T01:23:44;1.20;;;0.68;;
49890;SDS011;35780;55.568;37.492;2022-10-31T01:26:14;1.10;;;0.60;;
49890;SDS011;35780;55.568;37.492;2022-10-31T01:28:49;1.85;;;0.88;;
49890;SDS011;35780;55.568;37.492;2022-10-31T01:31:15;1.17;;;0.52;;
49890;SDS011;35780;55.568;37.492;2022-10-31T01:33:41;0.63;;;0.50;;
49890;SDS011;35780;55.568;37.492;2022-10-31T01:36:17;2.28;;;0.80;;
49890;SDS011;35780;55.568;37.492;2022-10-31T01:38:47;3.20;;;0.77;;
49890;SDS011;35780;55.568;37.492;2022-10-31T01:41:14;6.30;;;0.90;;
49890;SDS011;35780;55.568;37.492;2022-10-31T01:46:22;1.27;;;0.65;;
49890;SDS011;35780;55.568;37.492;2022-10-31T01:48:49;4.25;;;0.80;;
49890;SDS011;35780;55.568;37.492;2022-10-31T01:51:16;2.90;;;0.60;;
49890;SDS011;35780;55.568;37.492;2022-10-31T01:53:43;1.45;;;0.70;;
49890;SDS011;35780;55.568;37.492;2022-10-31T01:56:10;4.68;;;0.60;;
49890;SDS011;35780;55.568;37.492;2022-10-31T01:58:35;3.30;;;0.47;;
49890;SDS011;35780;55.568;37.492;2022-10-31T02:01:01;1.90;;;0.80;;
49890;SDS011;35780;55.568;37.492;2022-10-31T02:03:27;2.00;;;0.70;;
49890;SDS011;35780;55.568;37.492;2022-10-31T02:05:54;2.38;;;0.88;;
49890;SDS011;35780;55.568;37.492;2022-10-31T02:08:27;1.90;;;0.70;;
49890;SDS011;35780;55.568;37.492;2022-10-31T02:10:54;5.13;;;1.00;;
49890;SDS011;35780;55.568;37.492;2022-10-31T02:13:21;1.05;;;0.68;;
49890;SDS011;35780;55.568;37.492;2022-10-31T02:15:49;2.70;;;0.85;;
49890;SDS011;35780;55.568;37.492;2022-10-31T02:18:20;6.38;;;1.50;;
49890;SDS011;35780;55.568;37.492;2022-10-31T02:24:07;2.55;;;1.10;;
49890;SDS011;35780;55.568;37.492;2022-10-31T02:26:45;2.13;;;0.80;;
49890;SDS011;35780;55.568;37.492;2022-10-31T02:34:36;2.47;;;1.00;;
49890;SDS011;35780;55.568;37.492;2022-10-31T02:40:23;3.80;;;1.10;;
49890;SDS011;35780;55.568;37.492;2022-10-31T02:42:56;2.90;;;1.13;;
49890;SDS011;35780;55.568;37.492;2022-10-31T02:45:28;1.27;;;0.80;;
49890;SDS011;35780;55.568;37.492;2022-10-31T02:47:55;1.45;;;0.90;;
49890;SDS011;35780;55.568;37.492;2022-10-31T02:50:26;1.98;;;0.90;;
49890;SDS011;35780;55.568;37.492;2022-10-31T02:52:55;8.10;;;1.20;;
49890;SDS011;35780;55.568;37.492;2022-10-31T02:57:49;1.40;;;0.98;;
49890;SDS011;35780;55.568;37.492;2022-10-31T03:00:17;2.65;;;0.70;;
49890;SDS011;35780;55.568;37.492;2022-10-31T03:06:13;2.10;;;0.90;;
49890;SDS011;35780;55.568;37.492;2022-10-31T03:08:23;3.55;;;1.00;;
49890;SDS011;35780;55.568;37.492;2022-10-31T03:11:06;2.25;;;0.90;;
49890;SDS011;35780;55.568;37.492;2022-10-31T03:13:39;5.53;;;0.93;;
49890;SDS011;35780;55.568;37.492;2022-10-31T03:16:14;2.45;;;0.70;;
49890;SDS011;35780;55.568;37.492;2022-10-31T03:19:00;2.60;;;1.00;;
49890;SDS011;35780;55.568;37.492;2022-10-31T03:24:10;3.28;;;1.23;;
49890;SDS011;35780;55.568;37.492;2022-10-31T03:26:38;2.95;;;0.95;;
49890;SDS011;35780;55.568;37.492;2022-10-31T03:29:06;5.60;;;1.08;;
49890;SDS011;35780;55.568;37.492;2022-10-31T03:31:34;1.77;;;0.90;;
49890;SDS011;35780;55.568;37.492;2022-10-31T03:34:02;4.15;;;1.05;;
49890;SDS011;35780;55.568;37.492;2022-10-31T03:36:28;2.83;;;0.98;;
49890;SDS011;35780;55.568;37.492;2022-10-31T03:38:55;2.13;;;0.90;;
49890;SDS011;35780;55.568;37.492;2022-10-31T03:41:23;1.73;;;0.80;;
49890;SDS011;35780;55.568;37.492;2022-10-31T03:43:55;2.70;;;1.00;;
49890;SDS011;35780;55.568;37.492;2022-10-31T03:46:23;1.90;;;0.93;;
49890;SDS011;35780;55.568;37.492;2022-10-31T03:48:49;0.95;;;0.50;;
49890;SDS011;35780;55.568;37.492;2022-10-31T03:51:16;2.30;;;0.93;;
49890;SDS011;35780;55.568;37.492;2022-10-31T03:56:36;2.22;;;1.27;;
49890;SDS011;35780;55.568;37.492;2022-10-31T04:01:31;0.90;;;0.60;;
49890;SDS011;35780;55.568;37.492;2022-10-31T04:03:58;3.85;;;1.00;;
49890;SDS011;35780;55.568;37.492;2022-10-31T04:06:23;2.78;;;1.10;;
49890;SDS011;35780;55.568;37.492;2022-10-31T04:08:54;3.08;;;1.25;;
49890;SDS011;35780;55.568;37.492;2022-10-31T04:11:23;4.68;;;1.30;;
49890;SDS011;35780;55.568;37.492;2022-10-31T04:13:51;2.47;;;1.13;;
49890;SDS011;35780;55.568;37.492;2022-10-31T04:16:17;3.08;;;0.90;;
49890;SDS011;35780;55.568;37.492;2022-10-31T04:18:43;2.40;;;1.05;;
49890;SDS011;35780;55.568;37.492;2022-10-31T04:21:08;3.65;;;0.98;;
49890;SDS011;35780;55.568;37.492;2022-10-31T04:23:35;2.20;;;1.00;;
49890;SDS011;35780;55.568;37.492;2022-10-31T04:26:01;6.65;;;1.02;;
49890;SDS011;35780;55.568;37.492;2022-10-31T04:28:27;2.22;;;0.90;;
49890;SDS011;35780;55.568;37.492;2022-10-31T04:30:52;2.88;;;0.88;;
49890;SDS011;35780;55.568;37.492;2022-10-31T04:33:18;5.80;;;0.90;;
49890;SDS011;35780;55.568;37.492;2022-10-31T04:35:44;5.20;;;1.50;;
49890;SDS011;35780;55.568;37.492;2022-10-31T04:38:09;5.25;;;0.82;;
49890;SDS011;35780;55.568;37.492;2022-10-31T04:40:35;4.78;;;1.15;;
49890;SDS011;35780;55.568;37.492;2022-10-31T04:43:00;2.33;;;1.25;;
49890;SDS011;35780;55.568;37.492;2022-10-31T04:45:26;5.03;;;1.65;;
49890;SDS011;35780;55.568;37.492;2022-10-31T04:47:51;3.30;;;0.90;;
49890;SDS011;35780;55.568;37.492;2022-10-31T04:50:17;2.58;;;1.38;;
49890;SDS011;35780;55.568;37.492;2022-10-31T04:52:43;6.38;;;1.02;;
49890;SDS011;35780;55.568;37.492;2022-10-31T04:55:09;6.55;;;0.98;;
49890;SDS011;35780;55.568;37.492;2022-10-31T04:57:42;4.88;;;1.10;;
49890;SDS011;35780;55.568;37.492;2022-10-31T05:00:09;1.77;;;1.00;;
49890;SDS011;35780;55.568;37.492;2022-10-31T05:02:42;2.20;;;1.10;;
49890;SDS011;35780;55.568;37.492;2022-10-31T05:05:08;3.05;;;0.95;;
49890;SDS011;35780;55.568;37.492;2022-10-31T05:07:37;2.08;;;1.00;;
49890;SDS011;35780;55.568;37.492;2022-10-31T05:10:03;8.57;;;1.25;;
49890;SDS011;35780;55.568;37.492;2022-10-31T05:12:29;1.92;;;0.93;;
49890;SDS011;35780;55.568;37.492;2022-10-31T05:14:54;3.05;;;1.10;;
49890;SDS011;35780;55.568;37.492;2022-10-31T05:17:20;3.13;;;1.00;;
49890;SDS011;35780;55.568;37.492;2022-10-31T05:19:45;8.85;;;1.20;;
49890;SDS011;35780;55.568;37.492;2022-10-31T05:22:11;2.88;;;1.00;;
49890;SDS011;35780;55.568;37.492;2022-10-31T05:24:36;3.17;;;1.15;;
49890;SDS011;35780;55.568;37.492;2022-10-31T05:27:02;2.50;;;1.23;;
49890;SDS011;35780;55.568;37.492;2022-10-31T05:29:27;3.45;;;1.08;;
49890;SDS011;35780;55.568;37.492;2022-10-31T05:31:53;2.97;;;0.90;;
49890;SDS011;35780;55.568;37.492;2022-10-31T05:34:19;2.10;;;1.17;;
49890;SDS011;35780;55.568;37.492;2022-10-31T05:36:44;2.80;;;1.40;;
49890;SDS011;35780;55.568;37.492;2022-10-31T05:39:10;4.97;;;1.67;;
49890;SDS011;35780;55.568;37.492;2022-10-31T05:41:35;4.28;;;1.05;;
49890;SDS011;35780;55.568;37.492;2022-10-31T05:44:01;3.13;;;1.38;;
49890;SDS011;35780;55.568;37.492;2022-10-31T05:46:26;6.20;;;1.45;;
49890;SDS011;35780;55.568;37.492;2022-10-31T05:48:52;5.88;;;1.42;;
49890;SDS011;35780;55.568;37.492;2022-10-31T05:51:17;4.72;;;1.15;;
49890;SDS011;35780;55.568;37.492;2022-10-31T05:53:43;2.55;;;1.20;;
49890;SDS011;35780;55.568;37.492;2022-10-31T05:56:08;2.45;;;1.00;;
49890;SDS011;35780;55.568;37.492;2022-10-31T05:58:34;4.75;;;1.30;;
49890;SDS011;35780;55.568;37.492;2022-10-31T06:00:59;4.15;;;1.42;;
49890;SDS011;35780;55.568;37.492;2022-10-31T06:03:25;5.00;;;1.45;;
49890;SDS011;35780;55.568;37.492;2022-10-31T06:05:50;3.85;;;1.27;;
49890;SDS011;35780;55.568;37.492;2022-10-31T06:08:16;3.47;;;1.20;;
49890;SDS011;35780;55.568;37.492;2022-10-31T06:10:41;2.95;;;1.25;;
49890;SDS011;35780;55.568;37.492;2022-10-31T06:13:07;2.78;;;1.10;;
49890;SDS011;35780;55.568;37.492;2022-10-31T06:15:33;2.78;;;1.42;;
49890;SDS011;35780;55.568;37.492;2022-10-31T06:17:59;6.93;;;1.50;;
49890;SDS011;35780;55.568;37.492;2022-10-31T06:20:25;3.05;;;1.17;;
49890;SDS011;35780;55.568;37.492;2022-10-31T06:22:51;3.50;;;1.20;;
49890;SDS011;35780;55.568;37.492;2022-10-31T06:25:17;2.65;;;1.30;;
49890;SDS011;35780;55.568;37.492;2022-10-31T06:27:42;7.30;;;1.20;;
49890;SDS011;35780;55.568;37.492;2022-10-31T06:30:08;3.33;;;1.25;;
49890;SDS011;35780;55.568;37.492;2022-10-31T06:32:34;4.32;;;1.63;;
49890;SDS011;35780;55.568;37.492;2022-10-31T06:34:59;3.60;;;1.52;;
49890;SDS011;35780;55.568;37.492;2022-10-31T06:37:25;4.05;;;1.30;;
49890;SDS011;35780;55.568;37.492;2022-10-31T06:39:50;3.45;;;1.17;;
49890;SDS011;35780;55.568;37.492;2022-10-31T06:42:16;2.13;;;1.20;;
49890;SDS011;35780;55.568;37.492;2022-10-31T06:44:42;3.17;;;1.40;;
49890;SDS011;35780;55.568;37.492;2022-10-31T06:47:07;4.25;;;1.42;;
49890;SDS011;35780;55.568;37.492;2022-10-31T06:49:33;2.47;;;1.20;;
49890;SDS011;35780;55.568;37.492;2022-10-31T06:51:58;3.10;;;1.50;;
49890;SDS011;35780;55.568;37.492;2022-10-31T06:54:24;4.50;;;1.60;;
49890;SDS011;35780;55.568;37.492;2022-10-31T06:56:49;5.25;;;1.80;;
49890;SDS011;35780;55.568;37.492;2022-10-31T06:59:15;4.22;;;2.28;;
49890;SDS011;35780;55.568;37.492;2022-10-31T07:01:40;4.53;;;1.75;;
49890;SDS011;35780;55.568;37.492;2022-10-31T07:04:09;7.65;;;2.08;;
49890;SDS011;35780;55.568;37.492;2022-10-31T07:06:35;3.75;;;1.70;;
49890;SDS011;35780;55.568;37.492;2022-10-31T07:09:00;7.22;;;2.10;;
49890;SDS011;35780;55.568;37.492;2022-10-31T07:11:26;4.95;;;1.98;;
49890;SDS011;35780;55.568;37.492;2022-10-31T07:13:52;3.03;;;1.90;;
49890;SDS011;35780;55.568;37.492;2022-10-31T07:16:17;4.97;;;1.98;;
49890;SDS011;35780;55.568;37.492;2022-10-31T07:18:43;3.47;;;1.85;;
49890;SDS011;35780;55.568;37.492;2022-10-31T07:21:08;5.28;;;2.13;;
49890;SDS011;35780;55.568;37.492;2022-10-31T07:23:34;6.35;;;1.85;;
49890;SDS011;35780;55.568;37.492;2022-10-31T07:25:59;5.18;;;2.00;;
49890;SDS011;35780;55.568;37.492;2022-10-31T07:28:25;4.25;;;2.17;;
49890;SDS011;35780;55.568;37.492;2022-10-31T07:30:54;3.38;;;1.95;;
49890;SDS011;35780;55.568;37.492;2022-10-31T07:33:21;6.93;;;2.55;;
49890;SDS011;35780;55.568;37.492;2022-10-31T07:35:47;5.53;;;2.17;;
49890;SDS011;35780;55.568;37.492;2022-10-31T07:38:13;4.35;;;2.40;;
49890;SDS011;35780;55.568;37.492;2022-10-31T07:40:39;5.80;;;2.28;;
49890;SDS011;35780;55.568;37.492;2022-10-31T07:43:06;5.07;;;2.38;;
49890;SDS011;35780;55.568;37.492;2022-10-31T07:45:31;4.22;;;2.22;;
49890;SDS011;35780;55.568;37.492;2022-10-31T07:47:57;4.72;;;2.53;;
49890;SDS011;35780;55.568;37.492;2022-10-31T07:50:23;3.97;;;2.40;;
49890;SDS011;35780;55.568;37.492;2022-10-31T07:53:09;5.38;;;2.60;;
49890;SDS011;35780;55.568;37.492;2022-10-31T07:55:36;3.92;;;2.28;;
49890;SDS011;35780;55.568;37.492;2022-10-31T07:58:05;7.70;;;2.75;;
49890;SDS011;35780;55.568;37.492;2022-10-31T08:00:34;4.35;;;2.58;;
49890;SDS011;35780;55.568;37.492;2022-10-31T08:05:28;5.53;;;2.03;;
49890;SDS011;35780;55.568;37.492;2022-10-31T08:07:54;8.88;;;3.03;;
49890;SDS011;35780;55.568;37.492;2022-10-31T08:10:20;4.50;;;2.13;;
49890;SDS011;35780;55.568;37.492;2022-10-31T08:12:46;7.53;;;2.30;;
49890;SDS011;35780;55.568;37.492;2022-10-31T08:15:12;5.70;;;2.10;;
49890;SDS011;35780;55.568;37.492;2022-10-31T08:17:37;5.18;;;2.03;;
49890;SDS011;35780;55.568;37.492;2022-10-31T08:20:04;4.07;;;2.58;;
49890;SDS011;35780;55.568;37.492;2022-10-31T08:22:30;6.35;;;2.10;;
49890;SDS011;35780;55.568;37.492;2022-10-31T08:24:56;6.97;;;1.90;;
49890;SDS011;35780;55.568;37.492;2022-10-31T08:27:21;3.83;;;2.10;;
49890;SDS011;35780;55.568;37.492;2022-10-31T08:29:47;5.03;;;1.80;;
49890;SDS011;35780;55.568;37.492;2022-10-31T08:32:13;2.88;;;1.60;;
49890;SDS011;35780;55.568;37.492;2022-10-31T08:34:38;5.30;;;2.13;;
49890;SDS011;35780;55.568;37.492;2022-10-31T08:37:03;4.13;;;1.75;;
49890;SDS011;35780;55.568;37.492;2022-10-31T08:39:29;4.68;;;2.20;;
49890;SDS011;35780;55.568;37.492;2022-10-31T08:41:54;6.07;;;2.40;;
49890;SDS011;35780;55.568;37.492;2022-10-31T08:44:20;4.30;;;2.30;;
49890;SDS011;35780;55.568;37.492;2022-10-31T08:46:46;4.00;;;2.00;;
49890;SDS011;35780;55.568;37.492;2022-10-31T08:49:11;5.93;;;1.90;;
49890;SDS011;35780;55.568;37.492;2022-10-31T08:51:37;4.38;;;2.10;;
49890;SDS011;35780;55.568;37.492;2022-10-31T08:54:02;4.13;;;2.20;;
49890;SDS011;35780;55.568;37.492;2022-10-31T08:56:28;6.65;;;2.30;;
49890;SDS011;35780;55.568;37.492;2022-10-31T08:58:53;4.20;;;2.20;;
49890;SDS011;35780;55.568;37.492;2022-10-31T09:01:19;5.20;;;2.35;;
49890;SDS011;35780;55.568;37.492;2022-10-31T09:03:44;4.57;;;2.38;;
49890;SDS011;35780;55.568;37.492;2022-10-31T09:06:10;3.78;;;2.28;;
49890;SDS011;35780;55.568;37.492;2022-10-31T09:08:36;4.82;;;2.10;;
49890;SDS011;35780;55.568;37.492;2022-10-31T09:11:02;3.75;;;2.03;;
49890;SDS011;35780;55.568;37.492;2022-10-31T09:13:28;3.42;;;2.35;;
49890;SDS011;35780;55.568;37.492;2022-10-31T09:15:55;3.72;;;2.28;;
49890;SDS011;35780;55.568;37.492;2022-10-31T09:18:22;3.80;;;2.10;;
49890;SDS011;35780;55.568;37.492;2022-10-31T09:20:48;4.78;;;2.70;;
49890;SDS011;35780;55.568;37.492;2022-10-31T09:23:17;5.57;;;1.98;;
49890;SDS011;35780;55.568;37.492;2022-10-31T09:25:44;4.45;;;1.90;;
49890;SDS011;35780;55.568;37.492;2022-10-31T09:28:13;4.60;;;2.10;;
49890;SDS011;35780;55.568;37.492;2022-10-31T09:30:40;6.18;;;3.60;;
49890;SDS011;35780;55.568;37.492;2022-10-31T09:33:07;6.63;;;2.05;;
49890;SDS011;35780;55.568;37.492;2022-10-31T09:35:35;6.85;;;1.80;;
49890;SDS011;35780;55.568;37.492;2022-10-31T09:38:02;2.92;;;1.52;;
49890;SDS011;35780;55.568;37.492;2022-10-31T09:40:38;3.17;;;1.90;;
49890;SDS011;35780;55.568;37.492;2022-10-31T09:56:57;9.25;;;2.30;;
49890;SDS011;35780;55.568;37.492;2022-10-31T09:59:30;3.90;;;1.90;;
49890;SDS011;35780;55.568;37.492;2022-10-31T10:02:05;5.22;;;2.47;;
49890;SDS011;35780;55.568;37.492;2022-10-31T10:04:43;4.38;;;1.60;;
49890;SDS011;35780;55.568;37.492;2022-10-31T10:09:59;4.22;;;1.95;;
49890;SDS011;35780;55.568;37.492;2022-10-31T10:18:22;3.00;;;1.50;;
49890;SDS011;35780;55.568;37.492;2022-10-31T10:21:19;4.20;;;1.77;;
49890;SDS011;35780;55.568;37.492;2022-10-31T10:24:20;2.45;;;1.45;;
49890;SDS011;35780;55.568;37.492;2022-10-31T10:29:39;3.73;;;1.13;;
49890;SDS011;35780;55.568;37.492;2022-10-31T10:32:10;1.88;;;0.90;;
49890;SDS011;35780;55.568;37.492;2022-10-31T10:34:49;3.30;;;1.15;;
49890;SDS011;35780;55.568;37.492;2022-10-31T10:39:55;8.43;;;1.60;;
49890;SDS011;35780;55.568;37.492;2022-10-31T10:42:22;2.22;;;1.05;;
49890;SDS011;35780;55.568;37.492;2022-10-31T10:45:18;1.52;;;0.98;;
49890;SDS011;35780;55.568;37.492;2022-10-31T10:48:09;1.40;;;0.80;;
49890;SDS011;35780;55.568;37.492;2022-10-31T10:50:48;4.05;;;1.15;;
49890;SDS011;35780;55.568;37.492;2022-10-31T10:53:35;2.70;;;1.20;;
49890;SDS011;35780;55.568;37.492;2022-10-31T10:56:10;3.47;;;1.50;;
49890;SDS011;35780;55.568;37.492;2022-10-31T10:58:40;1.40;;;1.00;;
49890;SDS011;35780;55.568;37.492;2022-10-31T11:01:13;1.52;;;0.90;;
49890;SDS011;35780;55.568;37.492;2022-10-31T11:03:40;2.90;;;1.30;;
49890;SDS011;35780;55.568;37.492;2022-10-31T11:06:15;3.17;;;1.30;;
49890;SDS011;35780;55.568;37.492;2022-10-31T11:08:42;2.20;;;1.20;;
49890;SDS011;35780;55.568;37.492;2022-10-31T11:13:33;2.20;;;0.80;;
49890;SDS011;35780;55.568;37.492;2022-10-31T11:16:07;1.23;;;0.68;;
49890;SDS011;35780;55.568;37.492;2022-10-31T11:18:36;1.58;;;0.98;;
49890;SDS011;35780;55.568;37.492;2022-10-31T11:21:03;1.48;;;1.08;;
49890;SDS011;35780;55.568;37.492;2022-10-31T11:23:30;1.40;;;0.73;;
49890;SDS011;35780;55.568;37.492;2022-10-31T11:26:00;2.35;;;1.27;;
49890;SDS011;35780;55.568;37.492;2022-10-31T11:28:28;1.17;;;0.88;;
49890;SDS011;35780;55.568;37.492;2022-10-31T11:31:04;1.45;;;0.80;;
49890;SDS011;35780;55.568;37.492;2022-10-31T11:33:39;3.40;;;1.00;;
49890;SDS011;35780;55.568;37.492;2022-10-31T11:38:48;3.28;;;0.90;;
49890;SDS011;35780;55.568;37.492;2022-10-31T11:41:18;0.95;;;0.70;;
49890;SDS011;35780;55.568;37.492;2022-10-31T11:43:52;5.47;;;0.82;;
49890;SDS011;35780;55.568;37.492;2022-10-31T11:46:21;1.75;;;0.80;;
49890;SDS011;35780;55.568;37.492;2022-10-31T11:48:49;1.80;;;1.05;;
49890;SDS011;35780;55.568;37.492;2022-10-31T11:51:20;0.95;;;0.70;;
49890;SDS011;35780;55.568;37.492;2022-10-31T11:53:55;0.90;;;0.70;;
49890;SDS011;35780;55.568;37.492;2022-10-31T11:56:22;1.55;;;0.80;;
49890;SDS011;35780;55.568;37.492;2022-10-31T11:58:55;3.10;;;1.02;;
49890;SDS011;35780;55.568;37.492;2022-10-31T12:01:31;2.63;;;0.90;;
49890;SDS011;35780;55.568;37.492;2022-10-31T12:04:11;1.92;;;0.80;;
49890;SDS011;35780;55.568;37.492;2022-10-31T12:06:38;1.73;;;0.93;;
49890;SDS011;35780;55.568;37.492;2022-10-31T12:11:55;4.38;;;0.90;;
49890;SDS011;35780;55.568;37.492;2022-10-31T12:17:17;2.70;;;0.90;;
49890;SDS011;35780;55.568;37.492;2022-10-31T12:39:21;0.60;;;0.50;;
49890;SDS011;35780;55.568;37.492;2022-10-31T12:41:45;1.63;;;0.85;;
49890;SDS011;35780;55.568;37.492;2022-10-31T12:58:01;4.40;;;1.58;;
49890;SDS011;35780;55.568;37.492;2022-10-31T13:01:40;4.68;;;1.48;;
49890;SDS011;35780;55.568;37.492;2022-10-31T13:03:53;5.07;;;1.50;;
49890;SDS011;35780;55.568;37.492;2022-10-31T13:09:06;2.63;;;1.45;;
49890;SDS011;35780;55.568;37.492;2022-10-31T13:11:37;3.63;;;1.42;;
49890;SDS011;35780;55.568;37.492;2022-10-31T13:16:33;5.20;;;1.45;;
49890;SDS011;35780;55.568;37.492;2022-10-31T13:21:27;2.55;;;1.40;;
49890;SDS011;35780;55.568;37.492;2022-10-31T13:23:54;4.25;;;1.50;;
49890;SDS011;35780;55.568;37.492;2022-10-31T13:26:31;3.80;;;1.55;;
49890;SDS011;35780;55.568;37.492;2022-10-31T13:29:08;2.30;;;1.38;;
49890;SDS011;35780;55.568;37.492;2022-10-31T13:31:40;8.27;;;1.60;;
49890;SDS011;35780;55.568;37.492;2022-10-31T13:34:26;3.72;;;1.80;;
49890;SDS011;35780;55.568;37.492;2022-10-31T13:36:59;3.97;;;1.55;;
49890;SDS011;35780;55.568;37.492;2022-10-31T13:45:16;2.78;;;1.48;;
49890;SDS011;35780;55.568;37.492;2022-10-31T13:47:58;8.98;;;1.90;;
49890;SDS011;35780;55.568;37.492;2022-10-31T13:50:26;3.10;;;1.50;;
49890;SDS011;35780;55.568;37.492;2022-10-31T13:53:34;4.70;;;1.13;;
49890;SDS011;35780;55.568;37.492;2022-10-31T13:56:18;4.00;;;1.90;;
49890;SDS011;35780;55.568;37.492;2022-10-31T14:01:53;1.70;;;0.88;;
49890;SDS011;35780;55.568;37.492;2022-10-31T14:04:25;3.08;;;1.20;;
49890;SDS011;35780;55.568;37.492;2022-10-31T14:09:32;5.60;;;1.10;;
49890;SDS011;35780;55.568;37.492;2022-10-31T14:12:01;8.90;;;2.50;;
49890;SDS011;35780;55.568;37.492;2022-10-31T14:14:39;8.02;;;1.40;;
49890;SDS011;35780;55.568;37.492;2022-10-31T14:17:14;3.05;;;1.20;;
49890;SDS011;35780;55.568;37.492;2022-10-31T14:19:42;3.33;;;1.20;;
49890;SDS011;35780;55.568;37.492;2022-10-31T14:22:20;3.63;;;1.02;;
49890;SDS011;35780;55.568;37.492;2022-10-31T14:24:46;1.67;;;1.02;;
49890;SDS011;35780;55.568;37.492;2022-10-31T14:29:50;3.10;;;1.15;;
49890;SDS011;35780;55.568;37.492;2022-10-31T14:32:24;3.33;;;1.30;;
49890;SDS011;35780;55.568;37.492;2022-10-31T14:34:52;8.73;;;1.80;;
49890;SDS011;35780;55.568;37.492;2022-10-31T14:37:28;2.13;;;1.17;;
49890;SDS011;35780;55.568;37.492;2022-10-31T14:40:20;6.13;;;1.52;;
49890;SDS011;35780;55.568;37.492;2022-10-31T14:51:16;4.07;;;1.55;;
49890;SDS011;35780;55.568;37.492;2022-10-31T14:56:17;4.07;;;1.60;;
49890;SDS011;35780;55.568;37.492;2022-10-31T14:58:46;5.88;;;1.33;;
49890;SDS011;35780;55.568;37.492;2022-10-31T15:01:48;2.78;;;1.40;;
49890;SDS011;35780;55.568;37.492;2022-10-31T15:04:18;1.90;;;1.30;;
49890;SDS011;35780;55.568;37.492;2022-10-31T15:09:23;5.47;;;1.58;;
49890;SDS011;35780;55.568;37.492;2022-10-31T15:11:50;5.53;;;1.60;;
49890;SDS011;35780;55.568;37.492;2022-10-31T15:14:34;4.88;;;1.48;;
49890;SDS011;35780;55.568;37.492;2022-10-31T15:17:01;3.03;;;1.48;;
49890;SDS011;35780;55.568;37.492;2022-10-31T15:19:28;3.08;;;1.70;;
49890;SDS011;35780;55.568;37.492;2022-10-31T15:21:55;5.10;;;1.58;;
49890;SDS011;35780;55.568;37.492;2022-10-31T15:24:22;3.65;;;1.80;;
49890;SDS011;35780;55.568;37.492;2022-10-31T15:26:53;1.10;;;0.98;;
49890;SDS011;35780;55.568;37.492;2022-10-31T15:29:23;3.40;;;1.60;;
49890;SDS011;35780;55.568;37.492;2022-10-31T15:31:53;3.42;;;1.40;;
49890;SDS011;35780;55.568;37.492;2022-10-31T15:37:15;4.10;;;1.63;;
49890;SDS011;35780;55.568;37.492;2022-10-31T15:39:42;4.25;;;1.48;;
49890;SDS011;35780;55.568;37.492;2022-10-31T15:45:00;4.18;;;1.77;;
49890;SDS011;35780;55.568;37.492;2022-10-31T15:47:29;5.43;;;2.00;;
49890;SDS011;35780;55.568;37.492;2022-10-31T15:49:57;2.58;;;1.48;;
49890;SDS011;35780;55.568;37.492;2022-10-31T15:52:26;4.50;;;1.77;;
49890;SDS011;35780;55.568;37.492;2022-10-31T15:55:03;7.47;;;1.45;;
49890;SDS011;35780;55.568;37.492;2022-10-31T15:57:30;4.82;;;1.50;;
49890;SDS011;35780;55.568;37.492;2022-10-31T15:59:56;3.83;;;1.88;;
49890;SDS011;35780;55.568;37.492;2022-10-31T16:02:26;5.00;;;1.80;;
49890;SDS011;35780;55.568;37.492;2022-10-31T16:04:56;3.92;;;1.58;;
49890;SDS011;35780;55.568;37.492;2022-10-31T16:07:24;3.67;;;2.10;;
49890;SDS011;35780;55.568;37.492;2022-10-31T16:12:19;4.25;;;1.92;;
49890;SDS011;35780;55.568;37.492;2022-10-31T16:14:45;3.63;;;1.65;;
49890;SDS011;35780;55.568;37.492;2022-10-31T16:17:12;6.25;;;2.10;;
49890;SDS011;35780;55.568;37.492;2022-10-31T16:19:49;3.53;;;1.70;;
49890;SDS011;35780;55.568;37.492;2022-10-31T16:22:22;3.47;;;1.92;;
49890;SDS011;35780;55.568;37.492;2022-10-31T16:27:37;6.10;;;2.08;;
49890;SDS011;35780;55.568;37.492;2022-10-31T16:30:26;9.07;;;1.58;;
49890;SDS011;35780;55.568;37.492;2022-10-31T16:32:56;3.88;;;1.77;;
49890;SDS011;35780;55.568;37.492;2022-10-31T16:35:28;7.38;;;1.73;;
49890;SDS011;35780;55.568;37.492;2022-10-31T16:38:00;4.18;;;2.00;;
49890;SDS011;35780;55.568;37.492;2022-10-31T16:40:26;3.15;;;1.30;;
49890;SDS011;35780;55.568;37.492;2022-10-31T16:42:51;4.97;;;1.80;;
49890;SDS011;35780;55.568;37.492;2022-10-31T16:45:18;2.65;;;1.40;;
49890;SDS011;35780;55.568;37.492;2022-10-31T16:47:46;4.93;;;1.83;;
49890;SDS011;35780;55.568;37.492;2022-10-31T16:50:12;3.42;;;2.20;;
49890;SDS011;35780;55.568;37.492;2022-10-31T16:52:40;2.42;;;1.38;;
49890;SDS011;35780;55.568;37.492;2022-10-31T16:55:10;8.52;;;1.98;;
49890;SDS011;35780;55.568;37.492;2022-10-31T16:57:36;2.60;;;1.30;;
49890;SDS011;35780;55.568;37.492;2022-10-31T17:00:02;5.72;;;1.40;;
49890;SDS011;35780;55.568;37.492;2022-10-31T17:02:29;3.53;;;2.00;;
49890;SDS011;35780;55.568;37.492;2022-10-31T17:04:55;3.92;;;1.88;;
49890;SDS011;35780;55.568;37.492;2022-10-31T17:07:20;3.42;;;2.05;;
49890;SDS011;35780;55.568;37.492;2022-10-31T17:09:46;4.65;;;1.17;;
49890;SDS011;35780;55.568;37.492;2022-10-31T17:12:14;7.85;;;1.65;;